Time;durP1;ratioP1;P1;durP2;ratioP2;P2;SDS_P1;SDS_P2;PMS_P1;PMS_P2;Temp;Humidity;BMP_temperature;BMP_pressure;BME280_temperature;BME280_humidity;BME280_pressure;Samples;Min_cycle;Max_cycle;Signal;HPM_P1;HPM_P2
2022/05/12 00:00:12;;;;;;;0.60;0.50;;;;;;;16.17;79.47;99856.63;5046499;28;20804;-52
2022/05/12 00:02:38;;;;;;;0.40;0.20;;;;;;;15.95;80.16;99842.75;5042091;28;20578;-52
2022/05/12 00:05:06;;;;;;;0.40;0.20;;;;;;;16.06;80.14;99860.91;5041308;28;20479;-52
2022/05/12 00:07:33;;;;;;;0.50;0.50;;;;;;;16.10;79.48;99868.66;5053477;28;20534;-52
2022/05/12 00:10:00;;;;;;;0.40;0.20;;;;;;;16.06;80.24;99867.13;5040569;28;20520;-52
2022/05/12 00:12:26;;;;;;;0.53;0.47;;;;;;;16.01;80.39;99866.50;5049219;28;20928;-52
2022/05/12 00:14:53;;;;;;;0.40;0.20;;;;;;;16.01;80.00;99877.22;5040193;28;20501;-52
2022/05/12 00:17:20;;;;;;;0.80;0.80;;;;;;;15.94;80.60;99878.56;5043113;28;20948;-53
2022/05/12 00:19:46;;;;;;;0.40;0.20;;;;;;;15.77;81.13;99887.56;5046769;28;20953;-52
2022/05/12 00:22:13;;;;;;;0.40;0.30;;;;;;;15.72;81.17;99892.28;5044284;28;20454;-52
2022/05/12 00:24:40;;;;;;;0.63;0.63;;;;;;;15.80;81.03;99886.50;5039623;28;20486;-52
2022/05/12 00:27:06;;;;;;;0.50;0.40;;;;;;;15.58;81.71;99890.34;5043225;28;20796;-52
2022/05/12 00:29:33;;;;;;;0.40;0.20;;;;;;;15.60;81.53;99895.66;5046871;28;20479;-52
2022/05/12 00:32:00;;;;;;;0.40;0.20;;;;;;;15.73;81.67;99893.16;5043916;28;20508;-52
2022/05/12 00:34:26;;;;;;;0.40;0.20;;;;;;;15.86;80.61;99900.41;5039768;28;20451;-52
2022/05/12 00:36:53;;;;;;;0.40;0.20;;;;;;;15.68;81.52;99899.63;5042725;28;20459;-52
2022/05/12 00:39:19;;;;;;;1.70;0.70;;;;;;;15.94;80.78;99908.91;5046160;28;20541;-53
2022/05/12 00:41:46;;;;;;;0.40;0.20;;;;;;;15.86;81.07;99897.72;5044755;28;20455;-52
2022/05/12 00:44:15;;;;;;;1.20;0.57;;;;;;;15.86;81.35;99896.88;5039809;28;20490;-53
2022/05/12 00:46:43;;;;;;;1.17;1.17;;;;;;;15.70;82.00;99899.56;5041210;28;20455;-52
2022/05/12 00:49:15;;;;;;;0.40;0.20;;;;;;;15.79;81.67;99903.53;5041601;28;21354;-52
2022/05/12 00:52:02;;;;;;;0.40;0.30;;;;;;;15.78;81.58;99908.03;5040284;28;20482;-52
2022/05/12 00:54:33;;;;;;;0.40;0.20;;;;;;;15.69;82.43;99908.53;5042126;28;20482;-52
2022/05/12 00:57:02;;;;;;;0.50;0.40;;;;;;;15.85;81.41;99916.59;5039566;28;20446;-52
2022/05/12 00:59:32;;;;;;;5.20;1.80;;;;;;;15.76;82.61;99923.34;5042178;28;20533;-52
2022/05/12 01:02:00;;;;;;;0.40;0.20;;;;;;;15.62;82.87;99929.47;5046262;28;20912;-52
2022/05/12 01:04:30;;;;;;;0.50;0.30;;;;;;;15.78;82.40;99932.16;5044460;28;20569;-52
2022/05/12 01:06:57;;;;;;;0.40;0.20;;;;;;;15.75;82.97;99937.66;5051755;28;20454;-52
2022/05/12 01:09:26;;;;;;;0.40;0.30;;;;;;;16.38;81.33;99945.72;5041340;28;20506;-52
2022/05/12 01:11:53;;;;;;;0.80;0.80;;;;;;;16.22;81.78;99947.56;5046894;28;20508;-53
2022/05/12 01:14:19;;;;;;;0.50;0.30;;;;;;;16.35;81.70;99950.38;5040594;28;20811;-52
2022/05/12 01:16:50;;;;;;;0.40;0.20;;;;;;;16.75;81.63;99944.44;5046042;28;20451;-52
2022/05/12 01:19:20;;;;;;;0.40;0.20;;;;;;;17.45;79.02;99947.34;5045659;28;20467;-52
2022/05/12 01:21:48;;;;;;;0.40;0.20;;;;;;;17.85;77.77;99944.84;5026560;28;20526;-52
2022/05/12 01:24:17;;;;;;;0.40;0.20;;;;;;;18.22;76.42;99948.69;5038684;28;20492;-52
2022/05/12 01:26:43;;;;;;;0.40;0.30;;;;;;;18.50;75.82;99947.72;5045194;28;20462;-53
2022/05/12 01:29:11;;;;;;;0.50;0.40;;;;;;;18.62;74.42;99955.84;5045571;28;20513;-52
2022/05/12 01:31:38;;;;;;;0.40;0.20;;;;;;;18.89;73.67;99966.63;5040191;28;20494;-52
2022/05/12 01:34:07;;;;;;;0.40;0.20;;;;;;;18.89;73.95;99971.13;5038601;28;20534;-53
2022/05/12 01:36:36;;;;;;;0.40;0.20;;;;;;;18.93;73.52;99981.63;5059159;28;20928;-53
2022/05/12 01:39:04;;;;;;;1.13;1.13;;;;;;;19.35;71.85;99984.16;5043884;28;20536;-52
2022/05/12 01:41:31;;;;;;;0.93;0.93;;;;;;;19.08;73.09;99989.63;5041221;28;20512;-52
2022/05/12 01:44:00;;;;;;;6.13;1.03;;;;;;;19.28;72.60;99990.94;5037421;28;20495;-53
2022/05/12 01:46:27;;;;;;;0.40;0.20;;;;;;;19.14;72.59;99984.66;5042869;28;20470;-52
2022/05/12 01:48:54;;;;;;;0.40;0.20;;;;;;;19.16;72.74;99998.88;5036089;28;20863;-52
2022/05/12 01:51:20;;;;;;;0.40;0.20;;;;;;;19.22;72.55;100005.72;5041334;28;20482;-53
2022/05/12 01:53:47;;;;;;;0.40;0.20;;;;;;;18.96;73.68;100012.00;5045098;28;20930;-52
2022/05/12 01:56:14;;;;;;;0.80;0.60;;;;;;;19.03;73.82;100016.84;5042041;28;20447;-52
2022/05/12 01:58:40;;;;;;;0.50;0.40;;;;;;;19.40;72.61;100011.66;5038152;28;20467;-53
2022/05/12 02:01:07;;;;;;;0.40;0.20;;;;;;;19.23;72.66;100015.50;5041958;28;20510;-52
2022/05/12 02:03:34;;;;;;;0.40;0.20;;;;;;;19.05;73.51;100017.66;5045407;28;20499;-52
2022/05/12 02:06:02;;;;;;;0.40;0.30;;;;;;;19.25;73.47;100029.75;5031980;28;20444;-52
2022/05/12 02:08:28;;;;;;;0.40;0.20;;;;;;;19.17;73.23;100021.31;5045063;28;20525;-52
2022/05/12 02:10:55;;;;;;;0.40;0.20;;;;;;;19.26;72.82;100022.53;5040303;28;20944;-53
2022/05/12 02:13:25;;;;;;;0.40;0.20;;;;;;;19.08;73.63;100035.44;5045198;28;20506;-52
2022/05/12 02:15:57;;;;;;;0.40;0.20;;;;;;;19.22;73.17;100036.22;5042784;28;20446;-52
2022/05/12 02:18:24;;;;;;;0.40;0.30;;;;;;;19.34;73.27;100034.50;5038287;28;20481;-53
2022/05/12 02:20:51;;;;;;;0.40;0.20;;;;;;;19.03;74.29;100041.09;5040136;28;20501;-53
2022/05/12 02:23:18;;;;;;;0.40;0.20;;;;;;;19.08;74.02;100047.06;5046294;28;20501;-52
2022/05/12 02:25:45;;;;;;;0.40;0.20;;;;;;;18.96;74.97;100042.50;5048279;28;20500;-53
2022/05/12 02:28:12;;;;;;;0.40;0.20;;;;;;;18.99;74.81;100053.06;5042209;28;20619;-53
2022/05/12 02:30:38;;;;;;;0.40;0.20;;;;;;;19.00;74.66;100057.50;5043094;28;20518;-54
2022/05/12 02:33:05;;;;;;;0.40;0.20;;;;;;;18.94;75.35;100058.78;5047784;28;20970;-53
2022/05/12 02:35:32;;;;;;;0.40;0.20;;;;;;;18.98;75.39;100064.81;5048635;28;20447;-53
2022/05/12 02:37:58;;;;;;;0.40;0.30;;;;;;;18.99;75.00;100068.38;5041672;28;20482;-52
2022/05/12 02:40:28;;;;;;;0.40;0.20;;;;;;;18.84;76.15;100063.03;5042862;28;20497;-53
2022/05/12 02:42:57;;;;;;;0.40;0.30;;;;;;;18.91;75.94;100074.25;5048809;28;20455;-52
2022/05/12 02:45:25;;;;;;;0.40;0.20;;;;;;;19.13;74.98;100073.69;5048769;28;20846;-52
2022/05/12 02:47:52;;;;;;;0.87;0.50;;;;;;;19.05;75.58;100070.63;5048252;28;20826;-52
2022/05/12 02:50:19;;;;;;;0.40;0.20;;;;;;;19.06;75.78;100078.66;5048468;28;20486;-53
2022/05/12 02:52:46;;;;;;;0.40;0.20;;;;;;;19.21;75.33;100074.06;5043301;28;20457;-53
2022/05/12 02:55:13;;;;;;;0.40;0.20;;;;;;;19.12;75.52;100078.22;5041431;28;20491;-53
2022/05/12 02:57:41;;;;;;;0.40;0.20;;;;;;;19.12;75.78;100083.59;5047576;28;20467;-53
2022/05/12 03:00:16;;;;;;;0.40;0.20;;;;;;;19.21;75.34;100076.75;5047274;28;20447;-53
2022/05/12 03:02:44;;;;;;;0.40;0.30;;;;;;;19.06;75.98;100078.66;5044315;28;20811;-53
2022/05/12 03:05:11;;;;;;;0.40;0.30;;;;;;;19.35;75.14;100083.91;5042764;28;20483;-53
2022/05/12 03:07:39;;;;;;;0.40;0.20;;;;;;;19.50;74.19;100086.41;5054987;28;20847;-53
2022/05/12 03:10:08;;;;;;;0.40;0.20;;;;;;;19.38;74.46;100095.31;5041437;28;20464;-53
2022/05/12 03:12:36;;;;;;;1.13;1.13;;;;;;;19.42;74.45;100099.53;5051316;28;20455;-54
2022/05/12 03:15:04;;;;;;;0.40;0.30;;;;;;;19.35;74.51;100103.63;5041652;28;20517;-53
2022/05/12 03:17:32;;;;;;;0.40;0.30;;;;;;;19.45;74.46;100111.94;5043572;28;20478;-53
2022/05/12 03:19:58;;;;;;;0.40;0.30;;;;;;;19.22;74.81;100103.59;5048164;28;20509;-53
2022/05/12 03:22:25;;;;;;;0.40;0.20;;;;;;;19.10;75.26;100106.25;5047102;28;20811;-53
2022/05/12 03:24:52;;;;;;;0.40;0.20;;;;;;;19.16;75.49;100111.22;5040940;28;20487;-53
2022/05/12 03:27:19;;;;;;;0.40;0.30;;;;;;;19.17;75.56;100121.88;5042392;28;20487;-54
2022/05/12 03:29:46;;;;;;;0.63;0.57;;;;;;;19.20;75.39;100116.31;5048227;28;20509;-53
2022/05/12 03:32:13;;;;;;;0.83;0.83;;;;;;;19.48;74.19;100120.69;5047244;28;20451;-53
2022/05/12 03:34:40;;;;;;;5.00;1.33;;;;;;;19.53;74.23;100125.78;5035093;28;20455;-53
2022/05/12 03:37:08;;;;;;;0.40;0.20;;;;;;;19.79;71.17;100132.09;5047404;28;20513;-53
2022/05/12 03:39:42;;;;;;;0.40;0.20;;;;;;;19.58;73.42;100129.03;5047066;28;20462;-53
2022/05/12 03:42:15;;;;;;;0.40;0.30;;;;;;;19.44;74.47;100138.03;5047842;28;20478;-53
2022/05/12 03:44:54;;;;;;;0.80;0.80;;;;;;;19.69;73.66;100141.78;5042681;28;20495;-53
2022/05/12 03:47:27;;;;;;;0.40;0.20;;;;;;;19.67;73.63;100149.13;5039811;28;20477;-53
2022/05/12 03:50:01;;;;;;;0.60;0.50;;;;;;;19.30;74.41;100140.78;5045069;28;20940;-53
2022/05/12 03:52:27;;;;;;;0.40;0.30;;;;;;;19.24;75.21;100147.47;5040683;28;20944;-53
2022/05/12 03:54:54;;;;;;;0.40;0.20;;;;;;;19.10;75.91;100149.34;5042117;28;20495;-53
2022/05/12 03:57:25;;;;;;;0.40;0.20;;;;;;;19.36;75.01;100153.88;5047286;28;20517;-53
2022/05/12 03:59:53;;;;;;;0.40;0.20;;;;;;;19.50;73.93;100166.44;5047092;28;20477;-53
2022/05/12 04:02:19;;;;;;;0.40;0.30;;;;;;;19.29;74.84;100168.72;5040828;28;20450;-53
2022/05/12 04:04:48;;;;;;;0.40;0.30;;;;;;;19.61;73.68;100174.69;5055462;28;20541;-53
2022/05/12 04:07:18;;;;;;;0.67;0.67;;;;;;;19.66;73.09;100175.22;5028146;28;20449;-53
2022/05/12 04:09:45;;;;;;;0.40;0.20;;;;;;;19.31;73.23;100174.00;5040454;28;20452;-53
2022/05/12 04:12:12;;;;;;;0.40;0.20;;;;;;;19.21;73.45;100174.63;5050184;28;20463;-53
2022/05/12 04:14:40;;;;;;;0.40;0.20;;;;;;;19.32;72.62;100176.59;5040228;28;20513;-53
2022/05/12 04:17:08;;;;;;;0.40;0.20;;;;;;;19.22;73.82;100188.97;5045676;28;20448;-53
2022/05/12 04:19:35;;;;;;;0.40;0.20;;;;;;;19.35;73.54;100189.03;5047065;28;20471;-53
2022/05/12 04:22:03;;;;;;;0.40;0.20;;;;;;;19.40;73.61;100195.81;5042103;28;20504;-54
2022/05/12 04:24:30;;;;;;;0.40;0.20;;;;;;;19.40;74.06;100203.06;5040034;28;20488;-54
2022/05/12 04:26:57;;;;;;;0.40;0.20;;;;;;;19.47;72.97;100207.09;5044621;28;20451;-53
2022/05/12 04:29:25;;;;;;;0.40;0.20;;;;;;;19.32;72.94;100217.03;5046753;28;20532;-53
2022/05/12 04:31:51;;;;;;;0.40;0.20;;;;;;;19.65;70.97;100218.50;5042615;28;20450;-53
2022/05/12 04:37:03;;;;;;;0.40;0.20;;;;;;;19.71;70.11;100221.63;5041250;28;20998;-53
2022/05/12 04:39:31;;;;;;;4.63;0.67;;;;;;;19.55;71.05;100222.75;5046537;28;20468;-53
2022/05/12 04:42:04;;;;;;;0.40;0.20;;;;;;;19.78;69.81;100222.97;5046082;28;20946;-52
2022/05/12 04:44:31;;;;;;;0.40;0.20;;;;;;;19.57;69.26;100229.78;5046662;28;20542;-53
2022/05/12 04:46:57;;;;;;;0.40;0.20;;;;;;;19.42;69.41;100237.03;5045648;28;21024;-53
2022/05/12 04:49:26;;;;;;;0.47;0.37;;;;;;;19.49;69.93;100238.38;5039396;28;20991;-53
2022/05/12 04:51:53;;;;;;;0.40;0.30;;;;;;;19.46;69.27;100238.56;5039794;28;20553;-53
2022/05/12 04:54:23;;;;;;;0.40;0.20;;;;;;;19.47;69.15;100250.22;5060646;28;20448;-53
2022/05/12 04:56:49;;;;;;;0.40;0.20;;;;;;;19.16;70.63;100245.94;5045895;28;20457;-53
2022/05/12 04:59:16;;;;;;;0.40;0.20;;;;;;;19.22;71.00;100248.25;5039764;28;20466;-53
2022/05/12 05:01:42;;;;;;;0.40;0.20;;;;;;;19.16;72.00;100251.34;5039499;28;20452;-53
2022/05/12 05:04:09;;;;;;;0.77;0.50;;;;;;;19.42;71.08;100255.03;5044904;28;20459;-53
2022/05/12 05:06:36;;;;;;;0.40;0.20;;;;;;;19.23;71.81;100263.47;5046013;28;20467;-53
2022/05/12 05:09:03;;;;;;;0.40;0.20;;;;;;;19.17;72.31;100270.09;5041008;28;20529;-53
2022/05/12 05:11:37;;;;;;;0.40;0.20;;;;;;;19.35;70.91;100273.47;5038995;28;20542;-53
2022/05/12 05:14:05;;;;;;;0.40;0.20;;;;;;;19.56;69.41;100281.97;5042740;28;20458;-53
2022/05/12 05:16:31;;;;;;;0.40;0.20;;;;;;;19.03;70.50;100283.59;5045917;28;20456;-53
2022/05/12 05:18:58;;;;;;;0.40;0.20;;;;;;;19.19;71.07;100288.91;5042649;28;20470;-53
2022/05/12 05:21:25;;;;;;;0.40;0.20;;;;;;;19.20;71.60;100298.72;5038812;28;21005;-53
2022/05/12 05:23:51;;;;;;;0.40;0.20;;;;;;;19.28;71.32;100301.75;5042116;28;20861;-53
2022/05/12 05:26:18;;;;;;;0.40;0.20;;;;;;;19.14;71.86;100309.88;5045687;28;20491;-53
2022/05/12 05:28:45;;;;;;;0.40;0.20;;;;;;;19.21;70.63;100314.78;5042600;28;21018;-53
2022/05/12 05:31:11;;;;;;;0.40;0.20;;;;;;;19.08;70.79;100315.66;5054215;28;20516;-53
2022/05/12 05:33:38;;;;;;;0.53;0.53;;;;;;;19.00;71.02;100326.91;5042003;28;20483;-53
2022/05/12 05:36:05;;;;;;;0.40;0.20;;;;;;;18.99;70.57;100330.56;5027939;28;20458;-53
2022/05/12 05:38:31;;;;;;;0.40;0.20;;;;;;;18.98;70.56;100328.84;5042685;28;21049;-53
2022/05/12 05:40:58;;;;;;;0.40;0.20;;;;;;;19.11;69.86;100331.63;5038674;28;20454;-53
2022/05/12 05:43:26;;;;;;;0.40;0.20;;;;;;;18.97;70.32;100343.28;5041210;28;20448;-53
2022/05/12 05:45:53;;;;;;;0.40;0.20;;;;;;;19.01;70.85;100333.16;5044271;28;20491;-53
2022/05/12 05:48:21;;;;;;;0.40;0.20;;;;;;;19.41;69.85;100337.75;5034736;28;20482;-53
2022/05/12 05:53:37;;;;;;;0.40;0.20;;;;;;;20.37;67.21;100341.28;5045662;28;20451;-53
2022/05/12 05:56:07;;;;;;;0.87;0.53;;;;;;;21.17;64.85;100353.69;5040646;28;20439;-53
2022/05/12 05:58:34;;;;;;;0.40;0.20;;;;;;;21.28;63.13;100356.53;5037693;28;20518;-53
2022/05/12 06:01:01;;;;;;;0.40;0.20;;;;;;;21.76;62.30;100353.06;5043253;28;20514;-53
2022/05/12 06:03:27;;;;;;;3.33;1.13;;;;;;;22.10;60.63;100365.84;5045349;28;20518;-52
2022/05/12 06:05:55;;;;;;;0.40;0.20;;;;;;;22.03;61.02;100375.38;5041308;28;20495;-53
2022/05/12 06:08:23;;;;;;;0.40;0.20;;;;;;;22.67;59.46;100373.22;5048877;28;20471;-52
2022/05/12 06:10:58;;;;;;;0.40;0.20;;;;;;;22.76;58.36;100367.09;5041428;28;20925;-53
2022/05/12 06:13:24;;;;;;;0.50;0.30;;;;;;;22.71;57.89;100377.41;5045237;28;20505;-52
2022/05/12 06:15:51;;;;;;;0.40;0.30;;;;;;;22.71;57.29;100379.25;5042615;28;20446;-52
2022/05/12 06:18:18;;;;;;;0.40;0.20;;;;;;;22.50;58.16;100380.91;5037921;28;21052;-53
2022/05/12 06:20:47;;;;;;;0.40;0.20;;;;;;;22.50;57.46;100386.34;5040788;28;20456;-53
2022/05/12 06:23:14;;;;;;;0.50;0.30;;;;;;;22.44;58.36;100382.22;5035437;28;20446;-53
2022/05/12 06:25:41;;;;;;;0.40;0.30;;;;;;;22.21;58.26;100393.97;5040282;28;20545;-52
2022/05/12 06:28:08;;;;;;;0.40;0.23;;;;;;;22.55;57.21;100395.81;5044974;28;20475;-53
2022/05/12 06:30:36;;;;;;;0.40;0.20;;;;;;;22.43;56.73;100399.47;5043358;28;20891;-52
2022/05/12 06:33:04;;;;;;;1.00;0.83;;;;;;;22.15;56.90;100395.28;5038380;28;20451;-53
2022/05/12 06:35:31;;;;;;;0.40;0.20;;;;;;;22.23;57.97;100402.84;5032279;28;20451;-53
2022/05/12 06:37:58;;;;;;;0.40;0.20;;;;;;;22.42;56.61;100397.75;5045123;28;20549;-53
2022/05/12 06:40:25;;;;;;;0.40;0.30;;;;;;;22.50;56.77;100411.59;5043959;28;20806;-53
2022/05/12 06:42:53;;;;;;;0.40;0.20;;;;;;;22.58;56.10;100409.13;5038209;28;20529;-53
2022/05/12 06:45:21;;;;;;;0.40;0.20;;;;;;;22.09;57.29;100410.16;5038776;28;20494;-52
2022/05/12 06:47:51;;;;;;;0.40;0.20;;;;;;;22.28;57.20;100409.63;5044548;28;20472;-53
2022/05/12 06:50:23;;;;;;;0.40;0.20;;;;;;;22.05;56.41;100414.03;5044896;28;20876;-53
2022/05/12 06:52:50;;;;;;;0.40;0.20;;;;;;;21.94;56.37;100421.22;5044118;28;20987;-53
2022/05/12 06:55:17;;;;;;;0.40;0.20;;;;;;;22.13;56.56;100417.06;5044814;28;20512;-52
2022/05/12 06:57:44;;;;;;;0.40;0.20;;;;;;;22.15;56.13;100412.38;5039375;28;20479;-52
2022/05/12 07:00:16;;;;;;;0.40;0.20;;;;;;;22.20;56.46;100411.16;5038272;28;20456;-53
2022/05/12 07:02:44;;;;;;;0.40;0.30;;;;;;;22.28;55.59;100414.19;5042519;28;20450;-52
2022/05/12 07:05:13;;;;;;;0.40;0.20;;;;;;;22.41;55.53;100415.84;5044278;28;20996;-53
2022/05/12 07:07:42;;;;;;;2.10;1.90;;;;;;;22.57;55.84;100415.53;5041882;28;20471;-53
2022/05/12 07:10:09;;;;;;;0.40;0.20;;;;;;;22.87;55.60;100427.75;5040184;28;20473;-52
2022/05/12 07:12:37;;;;;;;0.60;0.40;;;;;;;22.59;56.50;100413.56;5052000;28;20470;-53
2022/05/12 07:15:05;;;;;;;2.30;1.37;;;;;;;22.53;55.79;100424.03;5041928;28;20442;-53
2022/05/12 07:17:33;;;;;;;0.40;0.20;;;;;;;22.87;55.03;100425.03;5043129;28;20468;-53
2022/05/12 07:28:15;;;;;;;0.40;0.30;;;;;;;22.95;55.47;100426.19;5047843;28;20474;-53
2022/05/12 07:33:45;;;;;;;0.40;0.20;;;;;;;23.04;55.58;100430.03;5045536;28;20447;-53
2022/05/12 07:36:16;;;;;;;1.13;1.13;;;;;;;22.23;55.60;100438.91;5041022;28;20862;-53
2022/05/12 07:38:43;;;;;;;0.40;0.20;;;;;;;22.30;54.63;100442.00;5041894;28;20542;-52
2022/05/12 07:41:12;;;;;;;0.40;0.20;;;;;;;22.43;55.52;100443.69;5047640;28;20452;-52
2022/05/12 07:43:40;;;;;;;0.40;0.30;;;;;;;22.33;55.33;100441.78;5047692;28;20905;-53
2022/05/12 07:46:07;;;;;;;0.40;0.20;;;;;;;22.28;56.87;100443.97;5028015;28;20956;-53
2022/05/12 07:48:35;;;;;;;0.40;0.20;;;;;;;22.39;56.32;100452.16;5040801;28;20463;-52
2022/05/12 07:51:02;;;;;;;0.40;0.20;;;;;;;22.59;55.92;100451.50;5047297;28;20493;-53
2022/05/12 07:53:29;;;;;;;2.30;2.20;;;;;;;22.74;55.98;100444.91;5047646;28;20447;-52
2022/05/12 07:55:55;;;;;;;0.40;0.20;;;;;;;22.85;55.03;100449.56;5041084;28;20473;-53
2022/05/12 07:58:23;;;;;;;0.40;0.20;;;;;;;23.12;54.13;100453.81;5040349;28;20473;-53
2022/05/12 08:00:50;;;;;;;0.40;0.20;;;;;;;23.96;51.96;100445.25;5046654;28;21011;-53
2022/05/12 08:03:17;;;;;;;0.40;0.20;;;;;;;22.98;52.97;100452.19;5047396;28;20541;-52
2022/05/12 08:05:44;;;;;;;0.40;0.30;;;;;;;22.92;53.34;100453.53;5034335;28;20476;-53
2022/05/12 08:08:11;;;;;;;0.40;0.27;;;;;;;22.92;54.25;100452.66;5047517;28;20478;-52
2022/05/12 08:10:38;;;;;;;0.80;0.80;;;;;;;22.97;53.05;100461.31;5041731;28;20462;-53
2022/05/12 08:13:07;;;;;;;0.40;0.30;;;;;;;22.52;54.12;100454.81;5048071;28;20458;-53
2022/05/12 08:15:34;;;;;;;0.40;0.30;;;;;;;22.82;54.38;100451.59;5030714;28;20937;-53
2022/05/12 08:18:01;;;;;;;1.23;1.23;;;;;;;23.23;54.09;100461.97;5044439;28;21026;-52
2022/05/12 08:20:28;;;;;;;0.50;0.30;;;;;;;23.04;54.69;100462.56;5043153;28;20455;-53
2022/05/12 08:22:54;;;;;;;0.40;0.20;;;;;;;23.50;52.53;100472.50;5047182;28;20501;-53
2022/05/12 08:25:21;;;;;;;2.83;1.13;;;;;;;23.45;52.15;100466.59;5040750;28;20992;-53
2022/05/12 08:27:48;;;;;;;0.40;0.30;;;;;;;23.58;50.78;100479.09;5033897;28;20480;-52
2022/05/12 08:30:17;;;;;;;0.40;0.20;;;;;;;23.47;50.82;100478.19;5048678;28;20478;-53
2022/05/12 08:32:44;;;;;;;0.47;0.30;;;;;;;23.65;51.50;100471.31;5040062;28;20436;-53
2022/05/12 08:35:11;;;;;;;1.27;0.50;;;;;;;23.82;49.75;100475.38;5044116;28;20951;-53
2022/05/12 08:37:38;;;;;;;5.23;1.37;;;;;;;23.73;51.21;100477.00;5045016;28;20518;-53
2022/05/12 08:40:11;;;;;;;0.40;0.30;;;;;;;24.00;49.26;100481.19;5042773;28;20471;-53
2022/05/12 08:42:43;;;;;;;0.40;0.20;;;;;;;24.35;48.33;100467.44;5040185;28;20882;-53
2022/05/12 08:45:13;;;;;;;1.47;0.50;;;;;;;24.12;49.53;100467.47;5040814;28;20447;-53
2022/05/12 08:47:45;;;;;;;0.40;0.20;;;;;;;24.95;47.79;100465.97;5046425;28;20475;-53
2022/05/12 08:50:26;;;;;;;0.40;0.30;;;;;;;24.05;49.67;100476.22;5045811;28;21003;-53
2022/05/12 08:52:57;;;;;;;0.40;0.20;;;;;;;23.98;50.39;100475.84;5045670;28;20943;-53
2022/05/12 08:55:39;;;;;;;0.40;0.20;;;;;;;24.42;51.71;100469.53;5045320;28;20439;-53
2022/05/12 08:58:09;;;;;;;0.40;0.30;;;;;;;24.38;51.29;100473.47;5043721;28;21000;-53
2022/05/12 09:01:00;;;;;;;0.60;0.60;;;;;;;24.40;51.09;100466.06;5039240;28;20936;-53
2022/05/12 09:03:53;;;;;;;0.40;0.20;;;;;;;23.59;53.02;100469.97;5039358;28;20448;-53
2022/05/12 09:06:26;;;;;;;0.50;0.30;;;;;;;24.07;52.46;100474.25;5038951;28;21030;-53
2022/05/12 09:09:23;;;;;;;0.40;0.20;;;;;;;24.16;50.18;100476.22;5055064;28;20499;-53
2022/05/12 09:12:09;;;;;;;0.40;0.20;;;;;;;23.99;50.65;100479.47;5039370;28;20480;-53
2022/05/12 09:14:48;;;;;;;4.77;1.17;;;;;;;24.05;51.57;100468.09;5039215;28;20921;-53
2022/05/12 09:17:21;;;;;;;0.40;0.23;;;;;;;24.12;51.93;100472.91;5043368;28;20440;-53
2022/05/12 09:19:48;;;;;;;0.40;0.20;;;;;;;24.27;52.41;100470.78;5043049;28;20521;-53
2022/05/12 09:22:24;;;;;;;0.40;0.20;;;;;;;24.83;51.20;100478.78;5032612;28;20505;-53
2022/05/12 09:24:51;;;;;;;0.40;0.27;;;;;;;24.83;51.17;100467.03;5045603;28;20995;-53
2022/05/12 09:27:27;;;;;;;0.40;0.20;;;;;;;24.40;50.88;100460.66;5044673;28;20869;-53
2022/05/12 09:29:54;;;;;;;4.73;1.00;;;;;;;25.45;49.62;100467.03;5039393;28;20478;-53
2022/05/12 09:32:25;;;;;;;0.40;0.20;;;;;;;25.18;48.60;100474.91;5038555;28;20456;-53
2022/05/12 09:35:04;;;;;;;0.40;0.30;;;;;;;24.74;49.16;100468.66;5044875;28;20505;-53
2022/05/12 09:37:32;;;;;;;0.40;0.20;;;;;;;23.80;52.56;100464.66;5045229;28;20549;-53
2022/05/12 09:40:21;;;;;;;0.40;0.30;;;;;;;24.87;50.63;100454.88;5041107;28;20872;-53
2022/05/12 09:42:54;;;;;;;9.13;2.60;;;;;;;24.95;49.29;100455.97;5036933;28;20442;-53
2022/05/12 09:45:26;;;;;;;0.40;0.20;;;;;;;24.97;49.71;100453.97;5037992;28;20448;-53
2022/05/12 09:48:08;;;;;;;0.50;0.40;;;;;;;25.20;48.65;100459.28;5043473;28;20498;-53
2022/05/12 09:50:39;;;;;;;0.40;0.20;;;;;;;25.43;48.39;100460.00;5043474;28;20487;-53
2022/05/12 09:53:09;;;;;;;0.50;0.30;;;;;;;24.97;47.23;100439.50;5041268;28;20450;-53
2022/05/12 09:55:39;;;;;;;0.40;0.20;;;;;;;25.74;46.79;100442.69;5052926;28;20443;-53
2022/05/12 09:58:27;;;;;;;0.40;0.20;;;;;;;25.44;47.12;100438.09;5039521;28;20472;-53
2022/05/12 10:01:11;;;;;;;0.40;0.30;;;;;;;25.77;44.16;100442.44;5039114;28;20531;-53
2022/05/12 10:09:28;;;;;;;0.40;0.20;;;;;;;24.57;45.83;100436.63;5041145;28;20537;-53
2022/05/12 10:12:21;;;;;;;0.40;0.20;;;;;;;23.87;47.99;100435.16;5046503;28;20469;-53
2022/05/12 10:14:48;;;;;;;1.50;1.13;;;;;;;24.55;48.11;100436.75;5037649;28;20945;-53
2022/05/12 10:17:46;;;;;;;0.50;0.30;;;;;;;25.04;46.96;100429.84;5041780;28;20471;-53
2022/05/12 10:20:14;;;;;;;0.40;0.20;;;;;;;25.79;45.18;100423.25;5037925;28;20965;-53
2022/05/12 10:23:05;;;;;;;0.87;0.50;;;;;;;25.87;45.02;100418.81;5037184;28;20456;-53
2022/05/12 10:25:39;;;;;;;0.40;0.20;;;;;;;26.10;42.60;100421.31;5040768;28;20444;-53
2022/05/12 10:28:52;;;;;;;0.40;0.20;;;;;;;25.94;42.53;100422.72;5044289;28;20472;-53
2022/05/12 10:31:25;;;;;;;0.40;0.20;;;;;;;25.84;44.54;100421.81;5018585;28;20870;-53
2022/05/12 10:34:29;;;;;;;0.40;0.20;;;;;;;25.32;44.33;100415.53;5038683;28;20451;-53
2022/05/12 10:37:02;;;;;;;0.40;0.30;;;;;;;25.24;44.08;100417.22;5041313;28;20781;-53
2022/05/12 10:39:52;;;;;;;0.40;0.30;;;;;;;25.49;42.49;100415.91;5014223;28;1122953;-53
2022/05/12 10:42:26;;;;;;;0.40;0.20;;;;;;;25.79;42.67;100420.53;5037842;28;20702;-53
2022/05/12 10:44:53;;;;;;;0.40;0.20;;;;;;;25.28;43.84;100413.22;5044242;28;20859;-53
2022/05/12 10:47:44;;;;;;;0.40;0.20;;;;;;;25.39;42.72;100408.56;5048734;28;20525;-53
2022/05/12 10:50:22;;;;;;;0.40;0.20;;;;;;;25.41;42.92;100411.16;5048671;28;20450;-53
2022/05/12 10:53:25;;;;;;;0.40;0.20;;;;;;;25.11;43.45;100412.00;5030758;28;20454;-53
2022/05/12 10:56:14;;;;;;;0.40;0.30;;;;;;;25.00;44.16;100403.88;5041640;28;20592;-53
2022/05/12 10:58:45;;;;;;;0.40;0.20;;;;;;;24.75;43.82;100411.44;5041705;28;20463;-52
2022/05/12 11:01:23;;;;;;;0.40;0.30;;;;;;;24.40;43.83;100403.56;5036096;28;20518;-53
2022/05/12 11:04:16;;;;;;;0.40;0.20;;;;;;;24.61;43.55;100406.31;5046626;28;20422;-53
2022/05/12 11:06:53;;;;;;;0.40;0.20;;;;;;;24.66;44.11;100398.59;5066185;28;20486;-52
2022/05/12 11:09:45;;;;;;;0.40;0.30;;;;;;;24.52;43.86;100390.78;5044338;28;20945;-53
2022/05/12 11:12:29;;;;;;;0.40;0.23;;;;;;;25.00;43.03;100398.44;5042097;28;20820;-53
2022/05/12 11:15:09;;;;;;;0.40;0.20;;;;;;;25.16;42.96;100400.69;5041669;28;20454;-53
2022/05/12 11:18:16;;;;;;;0.40;0.20;;;;;;;25.34;42.62;100396.34;5042838;28;20466;-53
2022/05/12 11:20:48;;;;;;;0.40;0.20;;;;;;;25.30;42.55;100403.06;5005209;28;20455;-53
2022/05/12 11:23:40;;;;;;;0.40;0.20;;;;;;;25.36;41.47;100408.00;5047964;28;20443;-53
2022/05/12 11:26:13;;;;;;;0.40;0.20;;;;;;;24.73;43.13;100401.69;5048005;28;20486;-53
2022/05/12 11:31:39;;;;;;;0.40;0.20;;;;;;;24.48;43.97;100390.19;5048166;28;20456;-53
2022/05/12 11:34:09;;;;;;;0.40;0.20;;;;;;;24.27;43.08;100399.25;5047965;28;20489;-53
2022/05/12 11:36:42;;;;;;;0.40;0.30;;;;;;;24.72;42.36;100400.81;5042700;28;20443;-53
2022/05/12 11:39:29;;;;;;;0.50;0.30;;;;;;;24.70;43.14;100394.66;5040813;28;20484;-53
2022/05/12 11:42:18;;;;;;;0.40;0.20;;;;;;;24.96;42.82;100394.25;5042512;28;20495;-53
2022/05/12 11:45:03;;;;;;;0.40;0.20;;;;;;;25.59;41.94;100397.75;5042886;28;20818;-53
2022/05/12 11:47:58;;;;;;;1.27;1.17;;;;;;;25.92;41.46;100393.91;5034859;28;20545;-53
2022/05/12 11:50:26;;;;;;;0.40;0.20;;;;;;;25.75;41.10;100398.13;5047496;28;20791;-53
2022/05/12 11:53:17;;;;;;;0.40;0.30;;;;;;;25.62;41.74;100392.03;5058624;28;20458;-53
2022/05/12 11:55:55;;;;;;;0.40;0.20;;;;;;;25.94;41.30;100383.72;5039092;28;20450;-53
2022/05/12 11:58:40;;;;;;;0.40;0.30;;;;;;;25.96;40.27;100392.59;5041136;28;20472;-53
2022/05/12 12:01:28;;;;;;;0.40;0.30;;;;;;;26.19;39.67;100379.59;5044391;28;20509;-53
2022/05/12 12:03:57;;;;;;;0.40;0.20;;;;;;;26.26;39.72;100380.75;4986919;28;20446;-53
2022/05/12 12:06:51;;;;;;;0.40;0.23;;;;;;;26.20;40.02;100382.19;5053823;28;20494;-53
2022/05/12 12:09:30;;;;;;;0.40;0.30;;;;;;;26.32;39.41;100379.34;5034819;28;20525;-53